createdAt,value
2023-10-08T00:00:00.242Z,997.65
2023-10-08T00:00:10.746Z,997.66
2023-10-08T00:00:21.265Z,997.64
2023-10-08T00:00:31.810Z,997.60
2023-10-08T00:00:42.329Z,997.60
2023-10-08T00:00:53.099Z,997.64
2023-10-08T00:01:03.381Z,997.60
2023-10-08T00:01:13.984Z,997.65
2023-10-08T00:01:24.428Z,997.63
2023-10-08T00:01:34.904Z,997.61
2023-10-08T00:01:45.736Z,997.65
2023-10-08T00:01:55.969Z,997.68
2023-10-08T00:02:06.483Z,997.69
2023-10-08T00:02:17.031Z,997.65
2023-10-08T00:02:27.534Z,997.70
2023-10-08T00:02:38.160Z,997.67
2023-10-08T00:02:48.705Z,997.69
2023-10-08T00:02:59.169Z,997.68
2023-10-08T00:03:09.769Z,997.67
2023-10-08T00:03:20.193Z,997.66
2023-10-08T00:03:30.859Z,997.65
2023-10-08T00:03:41.253Z,997.65
2023-10-08T00:03:51.800Z,997.65
2023-10-08T00:04:02.427Z,997.66
2023-10-08T00:04:12.871Z,997.69
2023-10-08T00:04:23.287Z,997.69
2023-10-08T00:04:33.796Z,997.67
2023-10-08T00:04:44.311Z,997.65
2023-10-08T00:04:54.829Z,997.64
2023-10-08T00:05:05.408Z,997.63
2023-10-08T00:05:15.979Z,997.60
2023-10-08T00:05:26.452Z,997.66
2023-10-08T00:05:36.984Z,997.65
2023-10-08T00:05:47.520Z,997.64
2023-10-08T00:05:57.984Z,997.63
2023-10-08T00:06:08.483Z,997.66
2023-10-08T00:06:19.001Z,997.65
2023-10-08T00:06:29.533Z,997.66
2023-10-08T00:06:40.046Z,997.68
2023-10-08T00:06:50.602Z,997.66
2023-10-08T00:07:01.088Z,997.66
2023-10-08T00:07:11.628Z,997.63
2023-10-08T00:07:22.145Z,997.64
2023-10-08T00:07:32.690Z,997.66
2023-10-08T00:07:43.186Z,997.67
2023-10-08T00:07:53.710Z,997.63
2023-10-08T00:08:04.224Z,997.63
2023-10-08T00:08:14.749Z,997.63
2023-10-08T00:08:25.310Z,997.65
2023-10-08T00:08:35.876Z,997.63
2023-10-08T00:08:46.357Z,997.67
2023-10-08T00:08:56.843Z,997.66
2023-10-08T00:09:07.392Z,997.67
2023-10-08T00:09:17.882Z,997.69
2023-10-08T00:09:28.419Z,997.66
2023-10-08T00:09:38.927Z,997.65
2023-10-08T00:09:49.453Z,997.66
2023-10-08T00:09:59.974Z,997.65
2023-10-08T00:10:10.503Z,997.59
2023-10-08T00:10:21.027Z,997.64
2023-10-08T00:10:31.535Z,997.65
2023-10-08T00:10:42.075Z,997.69
2023-10-08T00:10:52.744Z,997.70
2023-10-08T00:11:03.105Z,997.66
2023-10-08T00:11:13.717Z,997.66
2023-10-08T00:11:24.325Z,997.63
2023-10-08T00:11:34.763Z,997.64
2023-10-08T00:11:45.267Z,997.63
2023-10-08T00:11:55.725Z,997.66
2023-10-08T00:12:06.235Z,997.62
2023-10-08T00:12:16.767Z,997.63
2023-10-08T00:12:27.284Z,997.62
2023-10-08T00:12:37.804Z,997.60
2023-10-08T00:12:48.392Z,997.61
2023-10-08T00:12:58.859Z,997.58
2023-10-08T00:13:09.380Z,997.61
2023-10-08T00:13:19.891Z,997.60
2023-10-08T00:13:30.413Z,997.61
2023-10-08T00:13:40.941Z,997.65
2023-10-08T00:13:51.515Z,997.63
2023-10-08T00:14:01.989Z,997.61
2023-10-08T00:14:12.521Z,997.65
2023-10-08T00:14:23.119Z,997.63
2023-10-08T00:14:33.570Z,997.64
2023-10-08T00:14:44.122Z,997.60
2023-10-08T00:14:54.602Z,997.64
2023-10-08T00:15:05.122Z,997.63
2023-10-08T00:15:15.640Z,997.49
2023-10-08T00:15:26.155Z,997.56
2023-10-08T00:15:36.688Z,997.63
2023-10-08T00:15:47.241Z,997.60
2023-10-08T00:15:57.731Z,997.59
2023-10-08T00:16:08.251Z,997.61
2023-10-08T00:16:19.684Z,997.63
2023-10-08T00:16:29.327Z,997.65
2023-10-08T00:16:39.823Z,997.64
2023-10-08T00:16:50.375Z,997.65
2023-10-08T00:17:00.899Z,997.63
2023-10-08T00:17:11.468Z,997.63
2023-10-08T00:17:21.997Z,997.64
2023-10-08T00:17:32.569Z,997.60
2023-10-08T00:17:43.059Z,997.66
2023-10-08T00:17:53.556Z,997.67
2023-10-08T00:18:04.047Z,997.67
2023-10-08T00:18:14.594Z,997.67
2023-10-08T00:18:25.080Z,997.70
2023-10-08T00:18:35.640Z,997.66
2023-10-08T00:18:46.087Z,997.68
2023-10-08T00:18:56.606Z,997.69
2023-10-08T00:19:07.138Z,997.73
2023-10-08T00:19:17.659Z,997.76
2023-10-08T00:19:28.184Z,997.72
2023-10-08T00:19:38.707Z,997.65
2023-10-08T00:19:49.241Z,997.69
2023-10-08T00:19:59.740Z,997.67
2023-10-08T00:20:10.338Z,997.69
2023-10-08T00:20:20.839Z,997.68
2023-10-08T00:20:31.339Z,997.69
2023-10-08T00:20:41.858Z,997.68
2023-10-08T00:20:52.354Z,997.67
2023-10-08T00:21:02.913Z,997.67
2023-10-08T00:21:13.422Z,997.67
2023-10-08T00:21:23.928Z,997.70
2023-10-08T00:21:34.478Z,997.71
2023-10-08T00:21:44.977Z,997.69
2023-10-08T00:21:55.496Z,997.66
2023-10-08T00:22:06.016Z,997.67
2023-10-08T00:22:16.538Z,997.65
2023-10-08T00:22:27.084Z,997.69
2023-10-08T00:22:37.593Z,997.67
2023-10-08T00:22:48.107Z,997.67
2023-10-08T00:22:58.642Z,997.66
2023-10-08T00:23:09.165Z,997.65
2023-10-08T00:23:19.707Z,997.69
2023-10-08T00:23:30.250Z,997.65
2023-10-08T00:23:40.746Z,997.64
2023-10-08T00:23:51.283Z,997.62
2023-10-08T00:24:01.764Z,997.61
2023-10-08T00:24:12.291Z,997.64
2023-10-08T00:24:22.814Z,997.64
2023-10-08T00:24:33.336Z,997.60
2023-10-08T00:24:43.853Z,997.67
2023-10-08T00:24:54.382Z,997.67
2023-10-08T00:25:04.908Z,997.65
2023-10-08T00:25:15.441Z,997.62
2023-10-08T00:25:25.944Z,997.67
2023-10-08T00:25:36.481Z,997.66
2023-10-08T00:25:47.104Z,997.70
2023-10-08T00:25:57.512Z,997.67
2023-10-08T00:26:08.082Z,997.69
2023-10-08T00:26:18.588Z,997.69
2023-10-08T00:26:29.880Z,997.69
2023-10-08T00:26:39.661Z,997.68
2023-10-08T00:26:50.160Z,997.68
2023-10-08T00:27:00.652Z,997.72
2023-10-08T00:27:11.182Z,997.69
2023-10-08T00:27:21.723Z,997.71
2023-10-08T00:27:32.214Z,997.67
2023-10-08T00:27:42.748Z,997.69
2023-10-08T00:27:53.277Z,997.70
2023-10-08T00:28:03.804Z,997.73
2023-10-08T00:28:14.318Z,997.70
2023-10-08T00:28:24.847Z,997.74
2023-10-08T00:28:35.366Z,997.71
2023-10-08T00:28:45.917Z,997.74
2023-10-08T00:28:56.413Z,997.72
2023-10-08T00:29:06.940Z,997.74
2023-10-08T00:29:17.811Z,997.73
2023-10-08T00:29:28.017Z,997.73
2023-10-08T00:29:38.564Z,997.69
2023-10-08T00:29:49.100Z,997.71
2023-10-08T00:29:59.566Z,997.74
2023-10-08T00:30:10.081Z,997.75
2023-10-08T00:30:20.631Z,997.75
2023-10-08T00:30:31.119Z,997.75
2023-10-08T00:30:41.678Z,997.72
2023-10-08T00:30:52.206Z,997.77
2023-10-08T00:31:02.733Z,997.79
2023-10-08T00:31:13.295Z,997.78
2023-10-08T00:31:23.842Z,997.76
2023-10-08T00:31:34.294Z,997.78
2023-10-08T00:31:44.783Z,997.76
2023-10-08T00:31:55.387Z,997.79
2023-10-08T00:32:05.872Z,997.76
2023-10-08T00:32:16.447Z,997.78
2023-10-08T00:32:26.959Z,997.74
2023-10-08T00:32:37.572Z,997.79
2023-10-08T00:32:48.027Z,997.80
2023-10-08T00:32:58.598Z,997.82
2023-10-08T00:33:09.061Z,997.82
2023-10-08T00:33:19.544Z,997.81
2023-10-08T00:33:30.046Z,997.84
2023-10-08T00:33:40.543Z,997.80
2023-10-08T00:33:51.060Z,997.81
2023-10-08T00:34:01.588Z,997.84
2023-10-08T00:34:13.153Z,997.79
2023-10-08T00:34:22.633Z,997.81
2023-10-08T00:34:33.150Z,997.80
2023-10-08T00:34:43.674Z,997.82
2023-10-08T00:34:54.203Z,997.80
2023-10-08T00:35:04.725Z,997.77
2023-10-08T00:35:15.388Z,997.82
2023-10-08T00:35:25.832Z,997.83
2023-10-08T00:35:36.368Z,997.80
2023-10-08T00:35:46.838Z,997.81
2023-10-08T00:35:57.338Z,997.82
2023-10-08T00:36:07.869Z,997.84
2023-10-08T00:36:18.407Z,997.80
2023-10-08T00:36:28.910Z,997.81
2023-10-08T00:36:39.433Z,997.79
2023-10-08T00:36:49.967Z,997.79
2023-10-08T00:37:00.503Z,997.77
2023-10-08T00:37:11.032Z,997.80
2023-10-08T00:37:21.531Z,997.77
2023-10-08T00:37:32.062Z,997.72
2023-10-08T00:37:42.591Z,997.76
2023-10-08T00:37:53.113Z,997.80
2023-10-08T00:38:03.633Z,997.77
2023-10-08T00:38:14.185Z,997.70
2023-10-08T00:38:24.725Z,997.70
2023-10-08T00:38:35.219Z,997.75
2023-10-08T00:38:45.761Z,997.78
2023-10-08T00:38:56.242Z,997.75
2023-10-08T00:39:06.767Z,997.71
2023-10-08T00:39:17.329Z,997.71
2023-10-08T00:39:27.823Z,997.71
2023-10-08T00:39:38.346Z,997.73
2023-10-08T00:39:48.880Z,997.70
2023-10-08T00:39:59.394Z,997.72
2023-10-08T00:40:09.918Z,997.73
2023-10-08T00:40:20.466Z,997.75
2023-10-08T00:40:30.964Z,997.74
2023-10-08T00:40:41.541Z,997.77
2023-10-08T00:40:52.007Z,997.77
2023-10-08T00:41:02.554Z,997.79
2023-10-08T00:41:13.094Z,997.79
2023-10-08T00:41:23.607Z,997.79
2023-10-08T00:41:34.152Z,997.78
2023-10-08T00:41:44.670Z,997.80
2023-10-08T00:41:55.157Z,997.81
2023-10-08T00:42:05.705Z,997.81
2023-10-08T00:42:16.237Z,997.85
2023-10-08T00:42:26.729Z,997.83
2023-10-08T00:42:37.257Z,997.85
2023-10-08T00:42:47.806Z,997.83
2023-10-08T00:42:58.313Z,997.84
2023-10-08T00:43:08.835Z,997.87
2023-10-08T00:43:19.353Z,997.86
2023-10-08T00:43:29.877Z,997.88
2023-10-08T00:43:40.403Z,997.86
2023-10-08T00:43:50.921Z,997.88
2023-10-08T00:44:01.488Z,997.85
2023-10-08T00:44:12.037Z,997.90
2023-10-08T00:44:22.530Z,997.91
2023-10-08T00:44:33.050Z,997.93
2023-10-08T00:44:43.576Z,997.90
2023-10-08T00:44:54.117Z,997.91
2023-10-08T00:45:04.590Z,997.93
2023-10-08T00:45:15.118Z,997.87
2023-10-08T00:45:25.641Z,997.94
2023-10-08T00:45:36.178Z,997.91
2023-10-08T00:45:46.705Z,997.91
2023-10-08T00:45:57.214Z,997.90
2023-10-08T00:46:07.748Z,997.91
2023-10-08T00:46:18.368Z,997.88
2023-10-08T00:46:28.817Z,997.94
2023-10-08T00:46:39.345Z,997.89
2023-10-08T00:46:49.982Z,997.88
2023-10-08T00:47:00.431Z,997.92
2023-10-08T00:47:10.896Z,997.84
2023-10-08T00:47:21.477Z,997.92
2023-10-08T00:47:32.035Z,997.91
2023-10-08T00:47:42.577Z,997.91
2023-10-08T00:47:53.159Z,997.93
2023-10-08T00:48:03.596Z,997.94
2023-10-08T00:48:14.034Z,997.92
2023-10-08T00:48:24.612Z,997.92
2023-10-08T00:48:35.064Z,997.94
2023-10-08T00:48:45.584Z,997.94
2023-10-08T00:48:56.116Z,997.94
2023-10-08T00:49:06.629Z,997.94
2023-10-08T00:49:17.152Z,997.91
2023-10-08T00:49:27.676Z,997.91
2023-10-08T00:49:38.278Z,997.92
2023-10-08T00:49:48.741Z,997.90
2023-10-08T00:49:59.247Z,997.93
2023-10-08T00:50:09.886Z,997.89
2023-10-08T00:50:20.304Z,997.95
2023-10-08T00:50:30.876Z,997.88
2023-10-08T00:50:41.388Z,997.91
2023-10-08T00:50:51.898Z,997.95
2023-10-08T00:51:02.394Z,997.89
2023-10-08T00:51:12.926Z,997.95
2023-10-08T00:51:23.443Z,997.98
2023-10-08T00:51:33.966Z,997.98
2023-10-08T00:51:44.484Z,997.93
2023-10-08T00:51:55.008Z,997.95
2023-10-08T00:52:05.544Z,997.95
2023-10-08T00:52:16.062Z,997.94
2023-10-08T00:52:26.583Z,998.01
2023-10-08T00:52:37.122Z,997.94
2023-10-08T00:52:47.625Z,997.96
2023-10-08T00:52:58.158Z,997.95
2023-10-08T00:53:08.732Z,997.96
2023-10-08T00:53:19.231Z,997.94
2023-10-08T00:53:29.782Z,997.96
2023-10-08T00:53:40.342Z,997.95
2023-10-08T00:53:50.848Z,997.97
2023-10-08T00:54:01.326Z,997.97
2023-10-08T00:54:11.850Z,997.97
2023-10-08T00:54:22.366Z,997.96
2023-10-08T00:54:32.862Z,997.96
2023-10-08T00:54:43.388Z,997.94
2023-10-08T00:54:53.931Z,997.94
2023-10-08T00:55:04.437Z,997.94
2023-10-08T00:55:14.963Z,997.96
2023-10-08T00:55:25.562Z,997.90
2023-10-08T00:55:36.008Z,997.92
2023-10-08T00:55:46.524Z,997.95
2023-10-08T00:55:57.043Z,997.93
2023-10-08T00:56:07.576Z,997.89
2023-10-08T00:56:18.151Z,997.91
2023-10-08T00:56:28.693Z,997.92
2023-10-08T00:56:39.198Z,997.92
2023-10-08T00:56:49.917Z,997.90
2023-10-08T00:57:00.217Z,997.92
2023-10-08T00:57:10.723Z,997.91
2023-10-08T00:57:21.272Z,997.91
2023-10-08T00:57:31.793Z,997.89
2023-10-08T00:57:42.295Z,997.92
2023-10-08T00:57:52.822Z,997.87
2023-10-08T00:58:03.365Z,997.85
2023-10-08T00:58:13.918Z,997.87
2023-10-08T00:58:24.411Z,997.86
2023-10-08T00:58:34.977Z,997.89
2023-10-08T00:58:45.517Z,997.91
2023-10-08T00:58:55.975Z,997.86
2023-10-08T00:59:06.487Z,997.90
2023-10-08T00:59:17.292Z,997.89
2023-10-08T00:59:27.577Z,997.89
2023-10-08T00:59:38.124Z,997.90
2023-10-08T00:59:48.611Z,997.88
2023-10-08T00:59:59.151Z,997.90
2023-10-08T01:00:09.630Z,997.89
2023-10-08T01:00:20.151Z,997.90
2023-10-08T01:00:30.680Z,997.91
2023-10-08T01:00:41.213Z,997.89
2023-10-08T01:00:51.760Z,997.90
2023-10-08T01:01:02.280Z,997.91
2023-10-08T01:01:12.847Z,997.89
2023-10-08T01:01:23.288Z,997.87
2023-10-08T01:01:33.815Z,997.88
2023-10-08T01:01:44.348Z,997.87
2023-10-08T01:01:54.867Z,997.84
2023-10-08T01:02:05.398Z,997.89
2023-10-08T01:02:15.990Z,997.83
2023-10-08T01:02:26.549Z,997.82
2023-10-08T01:02:37.066Z,997.85
2023-10-08T01:02:47.965Z,997.83
2023-10-08T01:02:58.221Z,997.84
2023-10-08T01:03:08.626Z,997.85
2023-10-08T01:03:19.141Z,997.80
2023-10-08T01:03:29.660Z,997.80
2023-10-08T01:03:40.145Z,997.84
2023-10-08T01:03:50.738Z,997.80
2023-10-08T01:04:01.246Z,997.82
2023-10-08T01:04:11.837Z,997.82
2023-10-08T01:04:22.247Z,997.83
2023-10-08T01:04:32.717Z,997.83
2023-10-08T01:04:43.246Z,997.85
2023-10-08T01:04:53.764Z,997.85
2023-10-08T01:05:04.300Z,997.87
2023-10-08T01:05:14.960Z,997.89
2023-10-08T01:05:25.337Z,997.86
2023-10-08T01:05:35.895Z,997.86
2023-10-08T01:05:46.417Z,997.89
2023-10-08T01:05:56.933Z,997.87
2023-10-08T01:06:07.444Z,997.89
2023-10-08T01:06:17.947Z,997.89
2023-10-08T01:06:28.468Z,997.90
2023-10-08T01:06:39.001Z,997.92
2023-10-08T01:06:49.567Z,997.90
2023-10-08T01:07:00.088Z,997.95
2023-10-08T01:07:10.605Z,997.94
2023-10-08T01:07:21.079Z,997.93
2023-10-08T01:07:31.605Z,997.91
2023-10-08T01:07:42.132Z,997.92
2023-10-08T01:07:52.821Z,997.91
2023-10-08T01:08:03.182Z,997.91
2023-10-08T01:08:13.797Z,997.93
2023-10-08T01:08:24.526Z,997.92
2023-10-08T01:08:34.799Z,997.94
2023-10-08T01:08:45.344Z,997.94
2023-10-08T01:08:55.789Z,997.92
2023-10-08T01:09:06.336Z,997.92
2023-10-08T01:09:16.845Z,997.91
2023-10-08T01:09:27.364Z,997.93
2023-10-08T01:09:37.885Z,997.90
2023-10-08T01:09:48.407Z,997.88
2023-10-08T01:09:58.943Z,997.91
2023-10-08T01:10:09.448Z,997.90
2023-10-08T01:10:19.983Z,997.87
2023-10-08T01:10:30.503Z,997.88
2023-10-08T01:10:41.025Z,997.90
2023-10-08T01:10:51.546Z,997.93
2023-10-08T01:11:02.924Z,997.90
2023-10-08T01:11:12.606Z,997.89
2023-10-08T01:11:23.182Z,997.93
2023-10-08T01:11:33.705Z,997.96
2023-10-08T01:11:44.201Z,997.95
2023-10-08T01:11:54.681Z,997.91
2023-10-08T01:12:05.204Z,997.94
2023-10-08T01:12:15.727Z,997.86
2023-10-08T01:12:26.254Z,997.93
2023-10-08T01:12:36.771Z,997.93
2023-10-08T01:12:47.291Z,997.92
2023-10-08T01:12:57.813Z,997.94
2023-10-08T01:13:08.344Z,997.90
2023-10-08T01:13:18.860Z,997.95
2023-10-08T01:13:29.398Z,997.98
2023-10-08T01:13:39.906Z,997.94
2023-10-08T01:13:50.431Z,997.89
2023-10-08T01:14:00.956Z,997.89
2023-10-08T01:14:11.530Z,997.91
2023-10-08T01:14:22.025Z,997.89
2023-10-08T01:14:32.589Z,997.89
2023-10-08T01:14:43.095Z,997.93
2023-10-08T01:14:53.601Z,997.93
2023-10-08T01:15:04.096Z,997.92
2023-10-08T01:15:14.615Z,997.93
2023-10-08T01:15:25.132Z,997.92
2023-10-08T01:15:35.658Z,997.94
2023-10-08T01:15:46.188Z,997.92
2023-10-08T01:15:56.758Z,997.92
2023-10-08T01:16:07.219Z,997.90
2023-10-08T01:16:17.755Z,997.90
2023-10-08T01:16:28.345Z,997.89
2023-10-08T01:16:38.823Z,997.89
2023-10-08T01:16:49.382Z,997.91
2023-10-08T01:16:59.895Z,997.90
2023-10-08T01:17:10.363Z,997.92
2023-10-08T01:17:21.004Z,997.92
2023-10-08T01:17:31.463Z,997.94
2023-10-08T01:17:42.070Z,997.91
2023-10-08T01:17:52.515Z,997.93
2023-10-08T01:18:03.111Z,997.95
2023-10-08T01:18:13.507Z,997.94
2023-10-08T01:18:24.052Z,997.95
2023-10-08T01:18:34.538Z,998.00
2023-10-08T01:18:45.059Z,997.96
2023-10-08T01:18:55.584Z,997.92
2023-10-08T01:19:06.098Z,997.96
2023-10-08T01:19:16.626Z,997.97
2023-10-08T01:19:27.152Z,998.00
2023-10-08T01:19:37.697Z,997.97
2023-10-08T01:19:48.228Z,997.99
2023-10-08T01:19:58.711Z,997.98
2023-10-08T01:20:09.323Z,998.00
2023-10-08T01:20:19.830Z,997.99
2023-10-08T01:20:30.336Z,997.99
2023-10-08T01:20:40.841Z,998.03
2023-10-08T01:20:51.368Z,998.05
2023-10-08T01:21:01.850Z,998.03
2023-10-08T01:21:12.400Z,998.07
2023-10-08T01:21:22.891Z,998.08
2023-10-08T01:21:33.422Z,998.09
2023-10-08T01:21:43.941Z,998.09
2023-10-08T01:21:54.460Z,998.10
2023-10-08T01:22:04.994Z,998.07
2023-10-08T01:22:15.498Z,998.08
2023-10-08T01:22:26.021Z,998.05
2023-10-08T01:22:36.544Z,998.07
2023-10-08T01:22:47.067Z,998.08
2023-10-08T01:22:57.582Z,998.07
2023-10-08T01:23:08.109Z,998.07
2023-10-08T01:23:18.729Z,998.07
2023-10-08T01:23:29.205Z,998.06
2023-10-08T01:23:40.004Z,998.07
2023-10-08T01:23:50.248Z,998.10
2023-10-08T01:24:00.724Z,998.04
2023-10-08T01:24:11.244Z,998.06
2023-10-08T01:24:21.768Z,998.06
2023-10-08T01:24:32.288Z,998.08
2023-10-08T01:24:42.808Z,998.06
2023-10-08T01:24:53.360Z,998.05
2023-10-08T01:25:03.859Z,998.06
2023-10-08T01:25:14.447Z,998.05
2023-10-08T01:25:24.923Z,998.08
2023-10-08T01:25:35.430Z,998.08
2023-10-08T01:25:45.936Z,998.05
2023-10-08T01:25:56.468Z,998.07
2023-10-08T01:26:07.009Z,998.07
2023-10-08T01:26:17.556Z,998.07
2023-10-08T01:26:28.092Z,998.07
2023-10-08T01:26:38.567Z,998.09
2023-10-08T01:26:49.134Z,998.07
2023-10-08T01:26:59.608Z,998.05
2023-10-08T01:27:10.111Z,998.04
2023-10-08T01:27:20.639Z,998.02
2023-10-08T01:27:31.158Z,998.02
2023-10-08T01:27:41.677Z,998.03
2023-10-08T01:27:52.201Z,998.06
2023-10-08T01:28:02.724Z,998.00
2023-10-08T01:28:13.245Z,998.05
2023-10-08T01:28:23.796Z,998.08
2023-10-08T01:28:34.320Z,998.09
2023-10-08T01:28:44.823Z,998.10
2023-10-08T01:28:55.331Z,998.13
2023-10-08T01:29:05.869Z,998.12
2023-10-08T01:29:16.421Z,998.14
2023-10-08T01:29:26.924Z,998.18
2023-10-08T01:29:37.518Z,998.18
2023-10-08T01:29:47.987Z,998.20
2023-10-08T01:29:58.473Z,998.19
2023-10-08T01:30:08.980Z,998.22
2023-10-08T01:30:19.585Z,998.29
2023-10-08T01:30:30.065Z,998.19
2023-10-08T01:30:40.658Z,998.15
2023-10-08T01:30:51.088Z,998.10
2023-10-08T01:31:01.966Z,998.15
2023-10-08T01:31:12.169Z,998.10
2023-10-08T01:31:22.666Z,998.09
2023-10-08T01:31:33.170Z,998.11
2023-10-08T01:31:43.680Z,998.07
2023-10-08T01:31:54.226Z,998.05
2023-10-08T01:32:04.729Z,998.06
2023-10-08T01:32:15.307Z,998.08
2023-10-08T01:32:25.835Z,998.08
2023-10-08T01:32:36.552Z,998.09
2023-10-08T01:32:47.046Z,998.11
2023-10-08T01:32:57.429Z,998.09
2023-10-08T01:33:08.058Z,998.12
2023-10-08T01:33:18.450Z,998.11
2023-10-08T01:33:28.995Z,998.14
2023-10-08T01:33:39.446Z,998.14
2023-10-08T01:33:49.960Z,998.14
2023-10-08T01:34:00.487Z,998.16
2023-10-08T01:34:10.995Z,998.16
2023-10-08T01:34:21.516Z,998.16
2023-10-08T01:34:32.043Z,998.14
2023-10-08T01:34:42.564Z,998.14
2023-10-08T01:34:53.080Z,998.13
2023-10-08T01:35:03.626Z,998.12
2023-10-08T01:35:14.154Z,998.12
2023-10-08T01:35:24.864Z,998.13
2023-10-08T01:35:35.184Z,998.10
2023-10-08T01:35:45.743Z,998.10
2023-10-08T01:35:56.288Z,998.11
2023-10-08T01:36:06.742Z,998.11
2023-10-08T01:36:17.271Z,998.11
2023-10-08T01:36:27.777Z,998.13
2023-10-08T01:36:38.302Z,998.13
2023-10-08T01:36:48.823Z,998.14
2023-10-08T01:36:59.336Z,998.15
2023-10-08T01:37:09.858Z,998.13
2023-10-08T01:37:20.384Z,998.10
2023-10-08T01:37:30.932Z,998.07
2023-10-08T01:37:41.423Z,998.07
2023-10-08T01:37:51.985Z,998.07
2023-10-08T01:38:02.463Z,998.02
2023-10-08T01:38:13.018Z,998.00
2023-10-08T01:38:23.513Z,997.99
2023-10-08T01:38:34.092Z,998.01
2023-10-08T01:38:44.649Z,998.03
2023-10-08T01:38:55.100Z,998.05
2023-10-08T01:39:05.589Z,998.02
2023-10-08T01:39:16.110Z,998.05
2023-10-08T01:39:26.639Z,998.06
2023-10-08T01:39:37.157Z,998.11
2023-10-08T01:39:47.703Z,998.10
2023-10-08T01:39:58.192Z,998.12
2023-10-08T01:40:08.720Z,998.12
2023-10-08T01:40:19.250Z,998.13
2023-10-08T01:40:29.758Z,998.14
2023-10-08T01:40:40.286Z,998.15
2023-10-08T01:40:50.801Z,998.14
2023-10-08T01:41:01.352Z,998.11
2023-10-08T01:41:11.892Z,998.14
2023-10-08T01:41:22.366Z,998.16
2023-10-08T01:41:32.907Z,998.16
2023-10-08T01:41:43.415Z,998.19
2023-10-08T01:41:54.006Z,998.16
2023-10-08T01:42:04.452Z,998.16
2023-10-08T01:42:14.982Z,998.16
2023-10-08T01:42:25.495Z,998.10
2023-10-08T01:42:36.005Z,998.20
2023-10-08T01:42:46.542Z,998.13
2023-10-08T01:42:57.062Z,998.12
2023-10-08T01:43:07.596Z,998.12
2023-10-08T01:43:18.114Z,998.09
2023-10-08T01:43:28.736Z,998.06
2023-10-08T01:43:39.140Z,998.09
2023-10-08T01:43:49.674Z,998.10
2023-10-08T01:44:00.228Z,998.06
2023-10-08T01:44:10.870Z,998.08
2023-10-08T01:44:21.240Z,998.06
2023-10-08T01:44:31.792Z,998.07
2023-10-08T01:44:42.329Z,998.08
2023-10-08T01:44:53.411Z,998.09
2023-10-08T01:45:03.347Z,998.07
2023-10-08T01:45:13.910Z,998.06
2023-10-08T01:45:24.356Z,998.06
2023-10-08T01:45:34.884Z,998.06
2023-10-08T01:45:45.534Z,998.01
2023-10-08T01:45:55.959Z,998.01
2023-10-08T01:46:06.521Z,998.01
2023-10-08T01:46:17.259Z,997.98
2023-10-08T01:46:27.569Z,997.99
2023-10-08T01:46:38.039Z,997.99
2023-10-08T01:46:48.533Z,998.02
2023-10-08T01:46:59.074Z,998.03
2023-10-08T01:47:09.564Z,998.02
2023-10-08T01:47:20.116Z,998.04
2023-10-08T01:47:30.695Z,998.05
2023-10-08T01:47:41.260Z,998.06
2023-10-08T01:47:51.784Z,998.04
2023-10-08T01:48:02.275Z,998.06
2023-10-08T01:48:12.955Z,998.06
2023-10-08T01:48:23.363Z,998.07
2023-10-08T01:48:33.792Z,998.07
2023-10-08T01:48:44.272Z,998.06
2023-10-08T01:48:54.794Z,998.10
2023-10-08T01:49:05.353Z,998.09
2023-10-08T01:49:16.024Z,998.11
2023-10-08T01:49:26.366Z,998.09
2023-10-08T01:49:36.881Z,998.08
2023-10-08T01:49:47.841Z,998.10
2023-10-08T01:49:57.928Z,998.10
2023-10-08T01:50:08.442Z,998.09
2023-10-08T01:50:18.988Z,998.04
2023-10-08T01:50:29.532Z,998.12
2023-10-08T01:50:40.117Z,998.12
2023-10-08T01:50:50.584Z,998.07
2023-10-08T01:51:01.049Z,998.07
2023-10-08T01:51:11.589Z,998.10
2023-10-08T01:51:22.092Z,998.09
2023-10-08T01:51:32.612Z,998.14
2023-10-08T01:51:43.133Z,998.13
2023-10-08T01:51:53.651Z,998.12
2023-10-08T01:52:04.171Z,998.15
2023-10-08T01:52:14.710Z,998.12
2023-10-08T01:52:25.218Z,998.15
2023-10-08T01:52:35.742Z,998.14
2023-10-08T01:52:46.307Z,998.15
2023-10-08T01:52:56.783Z,998.17
2023-10-08T01:53:07.312Z,998.20
2023-10-08T01:53:17.884Z,998.21
2023-10-08T01:53:28.437Z,998.23
2023-10-08T01:53:38.966Z,998.20
2023-10-08T01:53:49.431Z,998.24
2023-10-08T01:54:00.022Z,998.24
2023-10-08T01:54:10.542Z,998.24
2023-10-08T01:54:21.014Z,998.23
2023-10-08T01:54:31.593Z,998.23
2023-10-08T01:54:41.994Z,998.24
2023-10-08T01:54:52.514Z,998.23
2023-10-08T01:55:03.064Z,998.21
2023-10-08T01:55:13.561Z,998.22
2023-10-08T01:55:24.139Z,998.23
2023-10-08T01:55:34.597Z,998.22
2023-10-08T01:55:45.113Z,998.21
2023-10-08T01:55:55.637Z,998.24
2023-10-08T01:56:06.166Z,998.25
2023-10-08T01:56:16.692Z,998.25
2023-10-08T01:56:27.255Z,998.24
2023-10-08T01:56:37.746Z,998.28
2023-10-08T01:56:48.256Z,998.26
2023-10-08T01:56:58.758Z,998.29
2023-10-08T01:57:09.280Z,998.32
2023-10-08T01:57:19.813Z,998.29
2023-10-08T01:57:30.426Z,998.29
2023-10-08T01:57:40.834Z,998.30
2023-10-08T01:57:51.348Z,998.32
2023-10-08T01:58:01.897Z,998.31
2023-10-08T01:58:12.407Z,998.33
2023-10-08T01:58:24.854Z,998.27
2023-10-08T01:58:33.429Z,998.31
2023-10-08T01:58:43.954Z,998.28
2023-10-08T01:58:54.485Z,998.28
2023-10-08T01:59:05.012Z,998.29
2023-10-08T01:59:15.838Z,998.28
2023-10-08T01:59:26.062Z,998.27
2023-10-08T01:59:36.580Z,998.28
2023-10-08T01:59:47.112Z,998.27
2023-10-08T01:59:57.663Z,998.25
2023-10-08T02:00:08.147Z,998.24
2023-10-08T02:00:18.635Z,998.23
2023-10-08T02:00:29.156Z,998.22
2023-10-08T02:00:39.670Z,998.22
2023-10-08T02:00:50.194Z,998.20
2023-10-08T02:01:00.722Z,998.17
2023-10-08T02:01:11.235Z,998.17
2023-10-08T02:01:21.810Z,998.12
2023-10-08T02:01:32.290Z,998.16
2023-10-08T02:01:42.856Z,998.14
2023-10-08T02:01:53.400Z,998.14
2023-10-08T02:02:03.860Z,998.16
2023-10-08T02:02:14.379Z,998.15
2023-10-08T02:02:24.955Z,998.16
2023-10-08T02:02:35.649Z,998.16
2023-10-08T02:02:46.002Z,998.15
2023-10-08T02:02:56.581Z,998.15
2023-10-08T02:03:07.044Z,998.13
2023-10-08T02:03:17.697Z,998.13
2023-10-08T02:03:28.113Z,998.10
2023-10-08T02:03:38.721Z,998.08
2023-10-08T02:03:49.085Z,998.09
2023-10-08T02:03:59.685Z,998.03
2023-10-08T02:04:10.203Z,998.06
2023-10-08T02:04:20.717Z,998.05
2023-10-08T02:04:31.312Z,998.07
2023-10-08T02:04:41.676Z,998.04
2023-10-08T02:04:52.231Z,998.06
2023-10-08T02:05:02.768Z,998.07
2023-10-08T02:05:13.245Z,998.06
2023-10-08T02:05:23.831Z,998.07
2023-10-08T02:05:34.282Z,998.06
2023-10-08T02:05:44.843Z,998.06
2023-10-08T02:05:55.310Z,998.08
2023-10-08T02:06:05.834Z,998.10
2023-10-08T02:06:16.320Z,998.10
2023-10-08T02:06:26.842Z,998.11
2023-10-08T02:06:37.369Z,998.14
2023-10-08T02:06:47.939Z,998.09
2023-10-08T02:06:58.407Z,998.13
2023-10-08T02:07:08.936Z,998.05
2023-10-08T02:07:19.447Z,998.10
2023-10-08T02:07:29.960Z,998.12
2023-10-08T02:07:40.498Z,998.13
2023-10-08T02:07:51.001Z,998.08
2023-10-08T02:08:01.523Z,998.12
2023-10-08T02:08:12.101Z,998.11
2023-10-08T02:08:22.606Z,998.05
2023-10-08T02:08:33.162Z,998.05
2023-10-08T02:08:43.664Z,998.05
2023-10-08T02:08:54.275Z,998.05
2023-10-08T02:09:04.640Z,998.08
2023-10-08T02:09:15.180Z,998.04
2023-10-08T02:09:25.713Z,998.08
2023-10-08T02:09:36.239Z,998.08
2023-10-08T02:09:46.725Z,998.07
2023-10-08T02:09:57.252Z,998.08
2023-10-08T02:10:07.767Z,998.07
2023-10-08T02:10:18.295Z,998.10
2023-10-08T02:10:28.819Z,998.11
2023-10-08T02:10:39.350Z,998.12
2023-10-08T02:10:49.886Z,998.13
2023-10-08T02:11:00.378Z,998.13
2023-10-08T02:11:10.948Z,998.15